Terminal Aerodrome Forecast
Issued by NWS Dodge City, KS

Home | Current Version | Previous Version | Graphics & Text | Print | Product List | Glossary Off
Versions: 1 2 3 4 5 6 7 8 9 10 11 12 13 14 15 16 17

000
FTUS43 KDDC 211120
TAFDDC
TAF
KDDC 211120Z 2112/2212 21005KT P6SM BKN100
     FM211500 21010KT P6SM BKN100
     FM212100 15009KT P6SM VCTS BKN100CB
     FM220300 16008KT P6SM VCSH OVC100
     FM220900 20008KT P6SM -SHRA OVC070=

USA.gov is the U.S. government's official web portal to all federal, state and local government web resources and services.